Time;durP1;ratioP1;P1;durP2;ratioP2;P2;SDS_P1;SDS_P2;PMS_P1;PMS_P2;Temp;Humidity;BMP_temperature;BMP_pressure;BME280_temperature;BME280_humidity;BME280_pressure;Samples;Min_cycle;Max_cycle;Signal;HPM_P1;HPM_P2
2020/12/22 00:02:09;;;;;;;4.07;3.47;;;;;;;11.98;100.00;100643.78;5047774;28;20116;-77
2020/12/22 00:04:34;;;;;;;5.07;3.13;;;;;;;11.91;100.00;100612.34;5055573;28;20037;-77
2020/12/22 00:06:59;;;;;;;7.78;3.47;;;;;;;11.95;100.00;100610.38;5049026;28;20033;-77
2020/12/22 00:09:25;;;;;;;3.90;3.50;;;;;;;11.86;100.00;100601.13;5053045;28;20036;-78
2020/12/22 00:11:50;;;;;;;5.03;3.47;;;;;;;11.91;100.00;100615.00;5052695;28;20076;-77
2020/12/22 00:14:16;;;;;;;4.45;4.05;;;;;;;11.89;100.00;100602.75;5057045;28;20032;-78
2020/12/22 00:16:41;;;;;;;5.20;3.50;;;;;;;11.85;100.00;100596.78;5051520;28;20029;-78
2020/12/22 00:19:06;;;;;;;6.30;3.70;;;;;;;11.83;100.00;100603.94;5063551;28;20029;-77
2020/12/22 00:21:33;;;;;;;4.13;3.70;;;;;;;11.83;100.00;100616.31;5056927;28;20496;-77
2020/12/22 00:23:58;;;;;;;4.25;3.13;;;;;;;11.85;100.00;100591.50;5061637;28;20024;-77
2020/12/22 00:26:24;;;;;;;4.55;3.13;;;;;;;11.77;100.00;100595.44;5055383;28;20493;-77
2020/12/22 00:28:49;;;;;;;5.60;2.70;;;;;;;11.83;100.00;100600.44;5047286;28;20031;-77
2020/12/22 00:31:14;;;;;;;4.70;2.00;;;;;;;11.81;100.00;100594.34;5054506;28;20105;-77
2020/12/22 00:33:40;;;;;;;2.47;2.28;;;;;;;11.74;100.00;100583.22;5052231;28;20045;-77
2020/12/22 00:36:07;;;;;;;2.97;1.80;;;;;;;11.80;100.00;100592.66;5063490;28;20029;-77
2020/12/22 00:38:32;;;;;;;1.65;1.55;;;;;;;11.79;100.00;100591.75;5058641;28;20035;-77
2020/12/22 00:40:57;;;;;;;2.10;1.40;;;;;;;11.77;100.00;100587.50;5056140;28;20033;-77
2020/12/22 00:43:23;;;;;;;2.78;1.38;;;;;;;11.76;100.00;100589.28;5056316;28;20396;-76
2020/12/22 00:45:48;;;;;;;2.67;1.65;;;;;;;11.77;100.00;100598.09;5051629;28;20072;-76
2020/12/22 00:48:13;;;;;;;2.50;1.85;;;;;;;11.77;100.00;100592.78;5056452;28;20086;-76
2020/12/22 00:50:38;;;;;;;3.33;2.17;;;;;;;11.77;100.00;100587.50;5053733;28;20063;-76
2020/12/22 00:53:04;;;;;;;1.73;1.63;;;;;;;11.81;100.00;100589.06;5057277;28;20040;-77
2020/12/22 00:55:29;;;;;;;2.55;2.35;;;;;;;11.78;100.00;100594.50;5054686;28;20032;-77
2020/12/22 00:57:54;;;;;;;4.13;2.63;;;;;;;11.80;100.00;100582.06;5058085;28;20024;-77
2020/12/22 01:00:21;;;;;;;3.13;2.60;;;;;;;11.83;100.00;100579.25;5056157;28;20110;-77
2020/12/22 01:02:47;;;;;;;3.05;2.58;;;;;;;11.78;100.00;100574.16;5049106;28;20126;-77
2020/12/22 01:05:12;;;;;;;3.28;2.63;;;;;;;11.77;100.00;100567.16;5057584;28;20021;-77
2020/12/22 01:07:37;;;;;;;3.00;1.73;;;;;;;11.82;100.00;100577.56;5051942;28;20026;-77
2020/12/22 01:10:03;;;;;;;6.43;2.42;;;;;;;11.79;100.00;100581.16;5053448;28;20072;-77
2020/12/22 01:12:28;;;;;;;1.67;1.30;;;;;;;11.82;100.00;100574.91;5054402;28;20538;-76
2020/12/22 01:14:54;;;;;;;1.95;1.10;;;;;;;11.78;100.00;100574.16;5053040;28;20056;-77
2020/12/22 01:17:19;;;;;;;1.10;1.00;;;;;;;11.83;100.00;100574.81;5056611;28;20032;-76
2020/12/22 01:19:45;;;;;;;1.65;1.15;;;;;;;11.88;100.00;100575.41;5049356;28;20060;-77
2020/12/22 01:22:10;;;;;;;1.08;0.70;;;;;;;11.85;100.00;100577.41;5055845;28;20116;-78
2020/12/22 01:24:35;;;;;;;0.60;0.60;;;;;;;11.88;100.00;100585.16;5039560;28;20028;-78
2020/12/22 01:27:01;;;;;;;1.35;0.80;;;;;;;11.88;100.00;100577.22;5051939;28;20676;-78
2020/12/22 01:29:26;;;;;;;1.92;1.05;;;;;;;11.88;100.00;100591.31;5055005;28;20016;-78
2020/12/22 01:31:51;;;;;;;1.13;0.65;;;;;;;11.93;100.00;100589.25;5057202;28;20068;-78
2020/12/22 01:34:17;;;;;;;0.98;0.55;;;;;;;11.93;100.00;100604.31;5057109;28;20029;-77
2020/12/22 01:36:42;;;;;;;1.90;0.70;;;;;;;11.88;100.00;100596.59;5066839;28;20053;-78
2020/12/22 01:39:08;;;;;;;1.35;0.80;;;;;;;11.91;100.00;100604.41;5059170;28;20107;-78
2020/12/22 01:41:35;;;;;;;1.38;0.70;;;;;;;11.91;100.00;100590.31;5054341;28;20024;-78
2020/12/22 01:44:03;;;;;;;3.70;0.90;;;;;;;11.95;100.00;100612.16;5052494;28;20025;-77
2020/12/22 01:46:42;;;;;;;2.10;0.77;;;;;;;11.97;100.00;100594.41;5048691;28;20075;-77
2020/12/22 01:49:16;;;;;;;3.10;1.10;;;;;;;11.84;100.00;100612.72;5069597;28;20024;-77
2020/12/22 01:51:43;;;;;;;1.98;0.90;;;;;;;11.84;100.00;100623.31;5059358;28;20109;-77
2020/12/22 01:54:09;;;;;;;1.23;1.02;;;;;;;11.82;100.00;100622.56;5060613;28;20064;-77
2020/12/22 01:56:36;;;;;;;1.95;0.90;;;;;;;11.81;100.00;100621.69;5058350;28;20075;-77
2020/12/22 01:59:02;;;;;;;1.58;0.55;;;;;;;11.84;100.00;100625.97;5056130;28;20070;-77
2020/12/22 02:01:30;;;;;;;4.20;1.30;;;;;;;11.84;100.00;100624.19;5033633;28;20029;-77
2020/12/22 02:03:56;;;;;;;5.05;1.17;;;;;;;11.81;100.00;100632.28;5046621;28;20509;-77
2020/12/22 02:06:21;;;;;;;5.20;1.30;;;;;;;11.85;100.00;100627.72;5049299;28;20287;-77
2020/12/22 02:08:46;;;;;;;1.65;1.13;;;;;;;11.87;100.00;100636.41;5043826;28;20093;-77
2020/12/22 02:11:11;;;;;;;1.60;1.15;;;;;;;11.82;100.00;100630.50;5037088;28;20080;-77
2020/12/22 02:13:37;;;;;;;2.10;1.30;;;;;;;11.85;100.00;100644.44;5058909;28;20032;-77
2020/12/22 02:16:02;;;;;;;1.70;1.60;;;;;;;11.83;100.00;100637.50;5036523;28;20059;-77
2020/12/22 02:18:28;;;;;;;2.72;1.50;;;;;;;11.86;100.00;100650.59;5021928;28;20737;-77
2020/12/22 02:20:53;;;;;;;1.55;1.40;;;;;;;11.78;100.00;100656.25;5037265;28;20074;-77
2020/12/22 02:23:18;;;;;;;2.72;1.50;;;;;;;11.82;100.00;100673.72;5058698;28;20087;-78
2020/12/22 02:25:46;;;;;;;2.67;1.70;;;;;;;11.78;100.00;100663.34;5038302;28;20079;-77
2020/12/22 02:28:11;;;;;;;1.83;1.60;;;;;;;11.73;100.00;100655.63;5054813;28;20045;-78
2020/12/22 02:30:37;;;;;;;3.05;2.08;;;;;;;11.79;100.00;100665.91;5037154;28;20091;-78
2020/12/22 02:33:02;;;;;;;8.82;2.10;;;;;;;11.80;100.00;100662.34;5053733;28;20476;-78
2020/12/22 02:35:29;;;;;;;1.88;1.20;;;;;;;11.88;100.00;100678.69;5050328;28;20028;-78
2020/12/22 02:37:54;;;;;;;5.00;1.20;;;;;;;11.93;100.00;100671.38;5053444;28;20024;-78
2020/12/22 02:40:19;;;;;;;2.38;1.00;;;;;;;11.98;100.00;100688.81;5060809;28;20032;-78
2020/12/22 02:42:46;;;;;;;2.28;0.98;;;;;;;11.98;100.00;100678.22;5058667;28;20075;-78
2020/12/22 02:45:11;;;;;;;1.95;0.80;;;;;;;11.99;100.00;100699.31;5055575;28;20516;-78
2020/12/22 02:47:36;;;;;;;1.60;0.57;;;;;;;12.00;100.00;100689.56;5054355;28;20039;-78
2020/12/22 02:50:01;;;;;;;1.02;0.60;;;;;;;11.89;100.00;100690.16;5058934;28;20025;-78
2020/12/22 02:52:27;;;;;;;6.07;0.88;;;;;;;11.82;100.00;100686.13;5043509;28;20020;-77
2020/12/22 02:54:52;;;;;;;1.63;0.73;;;;;;;11.79;100.00;100687.06;5056132;28;20028;-78
2020/12/22 02:57:17;;;;;;;4.95;1.02;;;;;;;11.78;100.00;100676.56;5059645;28;20040;-80
2020/12/22 02:59:43;;;;;;;5.15;1.65;;;;;;;11.78;100.00;100705.69;5057144;28;20485;-81
2020/12/22 03:05:30;;;;;;;2.17;0.73;;;;;;;11.73;100.00;100684.75;5044551;28;20028;-79
2020/12/22 03:07:56;;;;;;;7.10;1.10;;;;;;;11.72;100.00;100703.38;5054271;28;20100;-80
2020/12/22 03:10:21;;;;;;;4.05;1.20;;;;;;;11.71;100.00;100705.16;5052947;28;20052;-80
2020/12/22 03:12:48;;;;;;;4.72;1.15;;;;;;;11.76;100.00;100712.88;5060906;28;20044;-80
2020/12/22 03:15:14;;;;;;;2.83;0.88;;;;;;;11.73;100.00;100695.34;5053621;28;20029;-79
2020/12/22 03:17:40;;;;;;;7.63;1.25;;;;;;;11.76;100.00;100712.88;5058488;28;20028;-80
2020/12/22 03:20:07;;;;;;;10.90;1.50;;;;;;;11.65;100.00;100703.69;5056154;28;20021;-79
2020/12/22 03:22:34;;;;;;;5.65;0.93;;;;;;;11.73;100.00;100721.81;5057201;28;20108;-80
2020/12/22 03:24:59;;;;;;;4.90;1.10;;;;;;;11.74;100.00;100702.34;5051057;28;20082;-79
2020/12/22 03:27:25;;;;;;;5.40;1.10;;;;;;;11.71;100.00;100691.94;5055813;28;20021;-83
2020/12/22 03:29:50;;;;;;;4.78;1.17;;;;;;;11.70;100.00;100706.13;5052903;28;20037;-84
2020/12/22 03:32:16;;;;;;;8.95;1.02;;;;;;;11.70;100.00;100721.13;5051868;28;20474;-84
2020/12/22 03:34:41;;;;;;;4.30;1.05;;;;;;;11.74;100.00;100712.09;5059660;28;20024;-83
2020/12/22 03:37:07;;;;;;;3.55;0.80;;;;;;;11.75;100.00;100698.78;5053186;28;20026;-83
2020/12/22 03:39:32;;;;;;;2.72;1.50;;;;;;;11.68;100.00;100713.25;5058265;28;20021;-83
2020/12/22 03:41:57;;;;;;;6.35;1.15;;;;;;;11.75;100.00;100719.13;5051262;28;20025;-83
2020/12/22 03:44:22;;;;;;;3.25;0.88;;;;;;;11.74;100.00;100738.56;5061325;28;20039;-82
2020/12/22 03:46:48;;;;;;;3.13;0.90;;;;;;;11.76;100.00;100704.94;5057310;28;20079;-83
2020/12/22 03:49:20;;;;;;;6.15;1.10;;;;;;;11.66;100.00;100731.03;5063588;28;20499;-80
2020/12/22 03:51:45;;;;;;;3.95;0.70;;;;;;;11.68;100.00;100718.56;5050911;28;20512;-84
2020/12/22 03:54:11;;;;;;;5.07;1.08;;;;;;;11.70;100.00;100729.06;5040248;28;20051;-83
2020/12/22 03:56:38;;;;;;;6.47;1.02;;;;;;;11.67;100.00;100730.09;5053014;28;20044;-83
2020/12/22 03:59:04;;;;;;;7.38;1.10;;;;;;;11.71;100.00;100725.50;5052337;28;20024;-80
2020/12/22 04:01:29;;;;;;;6.95;1.33;;;;;;;11.66;100.00;100742.47;5033632;28;20539;-82
2020/12/22 04:03:54;;;;;;;4.43;1.20;;;;;;;11.62;100.00;100722.38;5054685;28;20032;-83
2020/12/22 04:06:20;;;;;;;4.50;1.10;;;;;;;11.75;100.00;100742.94;5034911;28;20120;-84
2020/12/22 04:08:45;;;;;;;4.53;1.58;;;;;;;11.71;100.00;100723.72;5055915;28;20532;-83
2020/12/22 04:11:11;;;;;;;6.43;0.90;;;;;;;11.72;100.00;100709.53;5047995;28;20186;-84
2020/12/22 04:13:36;;;;;;;6.13;1.27;;;;;;;11.74;100.00;100730.63;5050613;28;20028;-83
2020/12/22 04:16:04;;;;;;;5.80;0.80;;;;;;;11.76;100.00;100731.41;5035035;28;20028;-84
2020/12/22 04:18:29;;;;;;;6.03;1.90;;;;;;;11.76;100.00;100728.78;5050796;28;20078;-83
2020/12/22 04:20:57;;;;;;;6.72;1.10;;;;;;;11.71;100.00;100726.34;5033812;28;20483;-81
2020/12/22 04:23:23;;;;;;;4.80;1.45;;;;;;;11.70;100.00;100732.59;5066219;28;20098;-81
2020/12/22 04:25:48;;;;;;;4.82;1.08;;;;;;;11.67;100.00;100736.22;5056816;28;20028;-83
2020/12/22 04:28:13;;;;;;;6.85;1.52;;;;;;;11.63;100.00;100721.44;5055914;28;20033;-77
2020/12/22 04:30:38;;;;;;;6.97;0.95;;;;;;;11.69;100.00;100799.69;5038779;28;20029;-78
2020/12/22 04:33:04;;;;;;;6.82;1.30;;;;;;;11.71;100.00;100714.91;5060673;28;20029;-79
2020/12/22 04:35:29;;;;;;;7.85;1.23;;;;;;;11.70;100.00;100729.06;5051826;28;20060;-79
2020/12/22 04:37:54;;;;;;;9.48;1.55;;;;;;;11.84;100.00;100748.63;5060619;28;20432;-80
2020/12/22 04:40:19;;;;;;;8.15;1.50;;;;;;;11.80;100.00;100738.28;5052652;28;20029;-77
2020/12/22 04:42:46;;;;;;;10.00;1.33;;;;;;;11.81;100.00;100734.69;5061191;28;20526;-77
2020/12/22 04:45:12;;;;;;;9.98;1.20;;;;;;;11.76;100.00;100739.34;5054572;28;20078;-77
2020/12/22 04:47:41;;;;;;;5.80;1.15;;;;;;;11.70;100.00;100750.25;5056626;28;20025;-77
2020/12/22 04:50:06;;;;;;;9.90;2.25;;;;;;;11.60;100.00;100782.50;5055075;28;20196;-79
2020/12/22 04:52:32;;;;;;;7.18;1.35;;;;;;;11.65;100.00;100796.34;5051482;28;20111;-77
2020/12/22 04:54:57;;;;;;;5.68;1.52;;;;;;;11.65;100.00;100775.19;5053193;28;20020;-77
2020/12/22 04:57:30;;;;;;;7.63;1.17;;;;;;;11.68;100.00;100795.31;5052549;28;20032;-78
2020/12/22 04:59:56;;;;;;;5.70;1.15;;;;;;;11.68;100.00;100803.28;5057596;28;20488;-78
2020/12/22 05:02:26;;;;;;;6.43;1.08;;;;;;;11.67;100.00;100801.56;5033941;28;20151;-78
2020/12/22 05:04:51;;;;;;;8.15;1.05;;;;;;;11.62;100.00;100815.03;5054250;28;20037;-78
2020/12/22 05:07:16;;;;;;;19.42;4.43;;;;;;;11.67;100.00;100806.84;5050112;28;20126;-78
2020/12/22 05:09:43;;;;;;;9.27;1.30;;;;;;;11.66;100.00;100813.94;5058080;28;20041;-78
2020/12/22 05:12:08;;;;;;;10.98;1.15;;;;;;;11.66;100.00;100813.09;5057457;28;20555;-78
2020/12/22 05:14:34;;;;;;;7.40;1.40;;;;;;;11.63;100.00;100821.16;5051507;28;20041;-78
2020/12/22 05:16:59;;;;;;;8.77;1.02;;;;;;;11.65;100.00;100854.59;5049753;28;20029;-77
2020/12/22 05:19:33;;;;;;;5.18;1.65;;;;;;;11.69;100.00;100839.41;5034329;28;20649;-77
2020/12/22 05:22:00;;;;;;;9.60;1.90;;;;;;;11.68;100.00;100829.75;5054019;28;20025;-78
2020/12/22 05:24:27;;;;;;;6.88;1.23;;;;;;;11.67;100.00;100835.97;5053817;28;20111;-77
2020/12/22 05:26:53;;;;;;;3.92;1.02;;;;;;;11.63;100.00;100824.69;5058379;28;20024;-77
2020/12/22 05:29:18;;;;;;;16.75;1.98;;;;;;;11.67;100.00;100825.38;5055604;28;20033;-77
2020/12/22 05:31:46;;;;;;;10.18;3.22;;;;;;;11.66;100.00;100851.00;5055861;28;20033;-78
2020/12/22 05:34:12;;;;;;;4.70;1.42;;;;;;;11.66;100.00;100844.84;5056806;28;20032;-78
2020/12/22 05:36:39;;;;;;;13.10;1.80;;;;;;;11.62;100.00;100849.44;5049179;28;20074;-79
2020/12/22 05:39:09;;;;;;;8.18;1.80;;;;;;;11.57;100.00;100858.53;5039237;28;20024;-79
2020/12/22 05:41:35;;;;;;;7.70;1.33;;;;;;;11.59;100.00;100831.03;5044255;28;20436;-78
2020/12/22 05:44:01;;;;;;;10.82;1.65;;;;;;;11.60;100.00;100861.91;5057647;28;20028;-78
2020/12/22 05:46:28;;;;;;;10.82;1.08;;;;;;;11.57;100.00;100855.88;5054021;28;20067;-78
2020/12/22 05:48:58;;;;;;;10.23;2.15;;;;;;;11.52;100.00;100852.59;5073866;28;20029;-78
2020/12/22 05:51:24;;;;;;;4.55;1.42;;;;;;;11.51;100.00;100895.91;5053341;28;20025;-79
2020/12/22 05:53:52;;;;;;;7.78;2.80;;;;;;;11.47;100.00;100854.63;5054527;28;20025;-78
2020/12/22 05:56:18;;;;;;;9.93;1.60;;;;;;;11.44;100.00;100866.19;5055128;28;20041;-78
2020/12/22 05:58:44;;;;;;;11.30;1.65;;;;;;;11.38;100.00;100855.91;5054446;28;20386;-78
2020/12/22 06:01:12;;;;;;;9.20;1.98;;;;;;;11.42;100.00;100860.13;5054028;28;20040;-78
2020/12/22 06:03:38;;;;;;;17.48;2.75;;;;;;;11.34;100.00;100860.47;5055997;28;20108;-78
2020/12/22 06:06:06;;;;;;;13.77;2.90;;;;;;;11.39;100.00;100884.06;5058794;28;20052;-79
2020/12/22 06:08:31;;;;;;;8.57;2.13;;;;;;;11.40;100.00;100884.03;5058837;28;20033;-79
2020/12/22 06:11:01;;;;;;;12.50;2.30;;;;;;;11.46;100.00;100889.97;5054546;28;20562;-79
2020/12/22 06:13:26;;;;;;;11.00;1.63;;;;;;;11.46;100.00;100884.66;5056862;28;20044;-79
2020/12/22 06:15:53;;;;;;;13.32;1.88;;;;;;;11.39;100.00;100892.88;5053819;28;20029;-80
2020/12/22 06:18:20;;;;;;;13.02;1.98;;;;;;;11.43;100.00;100893.59;5054703;28;20035;-79
2020/12/22 06:20:45;;;;;;;7.75;1.98;;;;;;;11.45;100.00;100896.19;5053431;28;20048;-80
2020/12/22 06:23:12;;;;;;;9.80;1.95;;;;;;;11.41;100.00;100872.50;5063423;28;20551;-79
2020/12/22 06:25:37;;;;;;;9.98;2.33;;;;;;;11.36;100.00;100869.22;5049388;28;20079;-79
2020/12/22 06:28:03;;;;;;;7.95;1.38;;;;;;;11.35;100.00;100871.94;5056369;28;20040;-79
2020/12/22 06:30:33;;;;;;;7.28;1.83;;;;;;;11.26;100.00;100862.66;5053703;28;20020;-80
2020/12/22 06:33:17;;;;;;;8.77;1.40;;;;;;;11.33;100.00;100873.78;5052592;28;20029;-80
2020/12/22 06:36:14;;;;;;;12.15;2.05;;;;;;;11.39;99.81;100884.94;5068050;28;20026;-80
2020/12/22 06:38:47;;;;;;;5.45;1.10;;;;;;;11.41;99.84;100887.53;5055287;28;20024;-79
2020/12/22 06:41:43;;;;;;;6.60;1.33;;;;;;;11.43;99.76;100901.53;5058598;28;20064;-80
2020/12/22 06:44:15;;;;;;;6.93;2.30;;;;;;;11.38;100.00;100895.59;5052114;28;20029;-79
2020/12/22 06:46:43;;;;;;;5.68;1.20;;;;;;;11.38;100.00;100906.19;5056869;28;20033;-80
2020/12/22 06:49:08;;;;;;;7.82;1.38;;;;;;;11.37;100.00;100899.19;5056471;28;20036;-81
2020/12/22 06:51:36;;;;;;;11.10;1.63;;;;;;;11.33;100.00;100910.84;5054041;28;20024;-82
2020/12/22 06:54:04;;;;;;;8.00;1.38;;;;;;;11.29;100.00;100915.41;5057173;28;20036;-81
2020/12/22 06:56:47;;;;;;;11.70;1.95;;;;;;;11.26;100.00;100920.00;5055181;28;20052;-82
2020/12/22 06:59:33;;;;;;;9.63;2.08;;;;;;;11.26;100.00;100915.56;5052978;28;20480;-82
2020/12/22 07:01:59;;;;;;;16.90;2.63;;;;;;;11.29;100.00;100922.47;5043606;28;20025;-80
2020/12/22 07:04:25;;;;;;;12.02;2.50;;;;;;;11.26;100.00;100930.56;5049266;28;20037;-79
2020/12/22 07:07:06;;;;;;;19.90;3.65;;;;;;;11.19;100.00;100914.09;5055444;28;20477;-81
2020/12/22 07:09:34;;;;;;;17.35;2.88;;;;;;;11.11;100.00;100919.75;5061845;28;20198;-79
2020/12/22 07:12:11;;;;;;;20.50;3.47;;;;;;;11.10;100.00;100936.56;5060470;28;20025;-79
2020/12/22 07:14:48;;;;;;;18.90;2.80;;;;;;;11.16;100.00;100956.59;5057564;28;20044;-79
2020/12/22 07:17:15;;;;;;;32.15;4.07;;;;;;;11.11;100.00;100935.63;5044664;28;20116;-78
2020/12/22 07:19:46;;;;;;;33.67;4.72;;;;;;;11.11;100.00;100943.56;5055357;28;20045;-79
2020/12/22 07:22:13;;;;;;;20.58;3.10;;;;;;;11.13;100.00;100947.00;5031288;28;20044;-79
2020/12/22 07:24:38;;;;;;;21.52;3.85;;;;;;;11.26;99.99;100951.75;5055515;28;20028;-78
2020/12/22 07:27:06;;;;;;;16.92;4.57;;;;;;;11.23;100.00;100950.06;5068168;28;20162;-78
2020/12/22 07:29:34;;;;;;;25.30;2.95;;;;;;;11.22;100.00;100956.31;5062220;28;20047;-78
2020/12/22 07:32:01;;;;;;;21.58;3.10;;;;;;;11.21;100.00;100953.75;5068008;28;20033;-79
2020/12/22 07:34:26;;;;;;;14.68;2.33;;;;;;;11.19;100.00;100958.22;5066344;28;20119;-79
2020/12/22 07:37:03;;;;;;;22.85;3.67;;;;;;;11.23;99.02;100959.81;5061706;28;20092;-78
2020/12/22 07:39:28;;;;;;;12.38;2.85;;;;;;;11.26;98.52;100978.19;5068121;28;20111;-78
2020/12/22 07:41:53;;;;;;;11.73;2.33;;;;;;;11.28;98.53;100976.34;5066846;28;20052;-78
2020/12/22 07:44:21;;;;;;;18.08;2.58;;;;;;;11.30;98.25;100978.00;5065856;28;20037;-78
2020/12/22 07:46:52;;;;;;;20.77;2.80;;;;;;;11.36;97.26;100984.78;5066378;28;20017;-78
2020/12/22 07:49:17;;;;;;;18.02;3.20;;;;;;;11.43;96.75;100990.66;5060875;28;20206;-79
2020/12/22 07:51:45;;;;;;;20.58;2.63;;;;;;;11.49;96.03;101000.97;5062449;28;20513;-78
2020/12/22 07:54:11;;;;;;;14.05;1.90;;;;;;;11.44;96.24;101008.25;5046316;28;20067;-79
2020/12/22 07:56:39;;;;;;;11.95;2.28;;;;;;;11.43;95.99;101012.69;5071259;28;20225;-79
2020/12/22 07:59:08;;;;;;;17.20;3.95;;;;;;;11.49;95.49;101014.19;5068870;28;20024;-78
2020/12/22 08:01:38;;;;;;;14.68;3.10;;;;;;;11.54;94.88;101022.78;5069202;28;20029;-79
2020/12/22 08:04:24;;;;;;;15.07;2.72;;;;;;;11.51;95.00;101031.75;5049983;28;20031;-79
2020/12/22 08:07:06;;;;;;;7.35;2.20;;;;;;;11.47;95.22;101031.94;5072512;28;20650;-79
2020/12/22 08:09:36;;;;;;;17.05;3.47;;;;;;;11.52;95.00;101040.53;5073378;28;20064;-80
2020/12/22 08:12:03;;;;;;;16.58;2.72;;;;;;;11.49;95.18;101054.75;5047706;28;20036;-79
2020/12/22 08:14:32;;;;;;;23.63;2.80;;;;;;;11.51;95.24;101060.84;5053852;28;20024;-80
2020/12/22 08:17:00;;;;;;;15.35;2.00;;;;;;;11.44;95.66;101072.63;5048999;28;20041;-81
2020/12/22 08:19:29;;;;;;;16.73;2.75;;;;;;;11.45;95.76;101071.72;5057607;28;20025;-81
2020/12/22 08:21:56;;;;;;;24.60;3.05;;;;;;;11.41;96.13;101062.19;5054475;28;20476;-82
2020/12/22 08:24:22;;;;;;;16.30;3.03;;;;;;;11.41;96.20;101094.81;5042004;28;20039;-81
2020/12/22 08:26:49;;;;;;;18.02;4.28;;;;;;;11.39;96.43;101085.19;5057172;28;20101;-81
2020/12/22 08:29:16;;;;;;;17.20;3.05;;;;;;;11.36;96.64;101088.00;5056593;28;20036;-81
2020/12/22 08:31:43;;;;;;;15.30;2.92;;;;;;;11.37;96.05;101095.84;5040270;28;20043;-83
2020/12/22 08:34:10;;;;;;;17.38;3.05;;;;;;;11.41;95.97;101094.81;5051481;28;20024;-81
2020/12/22 08:36:36;;;;;;;14.48;2.83;;;;;;;11.45;95.64;101116.72;5032032;28;20064;-81
2020/12/22 08:39:15;;;;;;;15.88;3.13;;;;;;;11.43;95.66;101109.75;5057362;28;20076;-82
2020/12/22 08:41:43;;;;;;;19.70;4.15;;;;;;;11.40;95.70;101114.25;5047616;28;20270;-82
2020/12/22 08:44:10;;;;;;;16.70;3.03;;;;;;;11.41;95.66;101115.97;5049910;28;20039;-82
2020/12/22 08:46:38;;;;;;;17.50;2.70;;;;;;;11.41;95.99;101125.72;5056118;28;20077;-82
2020/12/22 08:49:24;;;;;;;16.17;2.72;;;;;;;11.41;95.65;101131.84;5051601;28;20115;-84
2020/12/22 08:51:50;;;;;;;14.73;3.08;;;;;;;11.41;95.73;101129.22;5051594;28;20025;-82
2020/12/22 08:54:16;;;;;;;18.83;2.97;;;;;;;11.36;95.93;101130.34;5056313;28;20611;-82
2020/12/22 08:56:41;;;;;;;19.63;2.53;;;;;;;11.33;96.08;101123.38;5051060;28;20033;-82
2020/12/22 08:59:08;;;;;;;15.82;2.65;;;;;;;11.31;96.60;101129.69;5051198;28;20110;-82
2020/12/22 09:01:45;;;;;;;14.75;4.60;;;;;;;11.29;96.90;101147.38;5052879;28;20025;-82
2020/12/22 09:04:12;;;;;;;19.00;3.17;;;;;;;11.24;97.40;101136.13;5048897;28;20605;-83
2020/12/22 09:06:41;;;;;;;15.18;2.72;;;;;;;11.21;98.08;101150.38;5031628;28;20028;-82
2020/12/22 09:09:11;;;;;;;17.40;2.33;;;;;;;11.17;98.65;101148.78;5050697;28;20131;-83
2020/12/22 09:11:38;;;;;;;15.57;2.25;;;;;;;11.12;99.00;101169.28;5064156;28;20032;-82
2020/12/22 09:14:06;;;;;;;13.70;2.67;;;;;;;11.09;99.41;101161.44;5051672;28;20043;-83
2020/12/22 09:16:54;;;;;;;19.70;2.72;;;;;;;11.12;99.51;101169.28;5053996;28;20021;-83
2020/12/22 09:19:42;;;;;;;14.77;2.50;;;;;;;11.08;99.80;101173.81;5051944;28;20059;-83
2020/12/22 09:22:07;;;;;;;16.80;2.95;;;;;;;11.02;100.00;101179.38;5052671;28;20051;-81
2020/12/22 09:24:33;;;;;;;17.58;3.33;;;;;;;10.88;100.00;101187.00;5051152;28;20508;-80
2020/12/22 09:27:01;;;;;;;20.08;2.80;;;;;;;10.78;100.00;101183.84;5050064;28;20028;-81
2020/12/22 09:29:27;;;;;;;19.95;3.22;;;;;;;10.77;100.00;101189.22;5048051;28;20032;-81
2020/12/22 09:31:53;;;;;;;18.40;2.80;;;;;;;10.76;100.00;101187.50;5053274;28;20036;-80
2020/12/22 09:34:20;;;;;;;16.02;2.80;;;;;;;10.73;100.00;101190.25;5055792;28;20032;-80
2020/12/22 09:36:55;;;;;;;11.20;2.85;;;;;;;10.71;100.00;101200.03;5046838;28;20033;-81
2020/12/22 09:39:21;;;;;;;17.93;3.20;;;;;;;10.71;100.00;101208.81;5050001;28;20425;-80
2020/12/22 09:41:47;;;;;;;19.83;2.85;;;;;;;10.72;100.00;101212.31;5056286;28;20048;-80
2020/12/22 09:44:12;;;;;;;19.77;2.95;;;;;;;10.72;100.00;101218.47;5035054;28;20075;-81
2020/12/22 09:46:38;;;;;;;19.52;3.00;;;;;;;10.72;100.00;101228.19;5049031;28;20053;-82
2020/12/22 09:49:03;;;;;;;17.17;2.78;;;;;;;10.75;100.00;101225.44;5051890;28;20021;-81
2020/12/22 09:51:29;;;;;;;22.88;3.50;;;;;;;10.74;100.00;101234.25;5046323;28;20154;-80
2020/12/22 09:53:54;;;;;;;24.27;3.60;;;;;;;10.75;100.00;101236.00;5052306;28;20070;-79
2020/12/22 09:56:19;;;;;;;24.75;3.80;;;;;;;10.70;100.00;101248.53;5052782;28;20033;-79
2020/12/22 09:58:45;;;;;;;26.75;3.75;;;;;;;10.62;100.00;101243.53;5047625;28;20048;-79
2020/12/22 10:01:10;;;;;;;26.27;4.32;;;;;;;10.63;100.00;101239.97;5049065;28;20541;-80
2020/12/22 10:03:35;;;;;;;17.45;4.03;;;;;;;10.61;100.00;101269.09;5049647;28;20056;-79
2020/12/22 10:06:00;;;;;;;18.40;3.22;;;;;;;10.51;100.00;101278.31;5039807;28;20485;-80
2020/12/22 10:08:26;;;;;;;15.35;3.25;;;;;;;10.43;100.00;101282.13;5047171;28;20040;-79
2020/12/22 10:10:51;;;;;;;24.73;3.60;;;;;;;10.32;100.00;101285.19;5051492;28;20048;-79
2020/12/22 10:13:16;;;;;;;21.25;2.45;;;;;;;10.29;100.00;101280.00;5056893;28;20530;-80
2020/12/22 10:15:41;;;;;;;19.13;3.17;;;;;;;10.28;100.00;101284.41;5053066;28;20044;-80
2020/12/22 10:18:09;;;;;;;26.17;3.80;;;;;;;10.31;100.00;101294.88;5059746;28;20102;-80
2020/12/22 10:20:36;;;;;;;18.65;2.97;;;;;;;10.27;100.00;101300.34;5049334;28;20035;-79
2020/12/22 10:23:02;;;;;;;21.27;3.85;;;;;;;10.26;100.00;101298.63;5032714;28;20040;-80
2020/12/22 10:25:28;;;;;;;23.70;4.97;;;;;;;10.22;100.00;101299.59;5054985;28;20028;-80
2020/12/22 10:27:53;;;;;;;17.83;3.00;;;;;;;10.19;100.00;101311.16;5053442;28;20025;-78
2020/12/22 10:30:18;;;;;;;16.48;3.65;;;;;;;10.09;100.00;101302.69;5057969;28;20036;-80
2020/12/22 10:32:43;;;;;;;13.15;2.80;;;;;;;10.08;100.00;101305.34;5057872;28;20465;-80
2020/12/22 10:35:09;;;;;;;11.02;2.17;;;;;;;10.06;100.00;101307.22;5058378;28;20489;-80
2020/12/22 10:37:34;;;;;;;11.38;2.30;;;;;;;10.02;100.00;101311.72;5064027;28;20028;-80
2020/12/22 10:39:59;;;;;;;14.63;2.50;;;;;;;10.00;100.00;101313.56;5038432;28;20479;-80
2020/12/22 10:42:24;;;;;;;13.60;3.17;;;;;;;9.93;100.00;101319.97;5058808;28;20077;-80
2020/12/22 10:44:50;;;;;;;9.93;2.03;;;;;;;9.92;100.00;101326.16;5056576;28;20052;-79
2020/12/22 10:47:15;;;;;;;11.25;2.95;;;;;;;9.96;100.00;101326.94;5053972;28;20473;-80
2020/12/22 10:49:40;;;;;;;10.75;2.22;;;;;;;9.97;100.00;101323.38;5050799;28;20037;-80
2020/12/22 10:52:05;;;;;;;12.60;2.85;;;;;;;9.96;100.00;101324.28;5039790;28;20456;-80
2020/12/22 10:54:31;;;;;;;18.98;3.08;;;;;;;9.86;100.00;101327.22;5056623;28;20039;-79
2020/12/22 10:56:56;;;;;;;9.35;3.58;;;;;;;9.82;100.00;101333.53;5050389;28;20032;-79
2020/12/22 10:59:21;;;;;;;17.85;3.67;;;;;;;9.71;100.00;101334.81;5053796;28;21457;-79
2020/12/22 11:01:49;;;;;;;11.63;3.65;;;;;;;9.78;100.00;101342.44;5050174;28;20033;-80
2020/12/22 11:04:14;;;;;;;14.73;4.13;;;;;;;9.76;100.00;101338.16;5052805;28;20033;-80
2020/12/22 11:06:53;;;;;;;13.65;3.88;;;;;;;9.88;100.00;101342.16;5054061;28;20086;-80
2020/12/22 11:09:19;;;;;;;8.60;3.05;;;;;;;9.83;100.00;101347.59;5056752;28;20041;-80
2020/12/22 11:11:46;;;;;;;13.20;3.72;;;;;;;9.88;100.00;101347.44;5057844;28;20020;-80
2020/12/22 11:14:13;;;;;;;11.50;2.50;;;;;;;9.85;100.00;101359.84;5053318;28;20037;-80
2020/12/22 11:16:38;;;;;;;10.55;2.50;;;;;;;9.88;100.00;101358.84;5052036;28;20024;-80
2020/12/22 11:19:03;;;;;;;8.95;2.50;;;;;;;9.81;100.00;101359.97;5048081;28;20033;-80